< < Back
Terminal Aerodrome Forecast


Current Version              Previous Versions:   1  2  3  4  5  6  7  8  9  

Terminal Aerodrome Forecast

559
FTUS42 KJAX 290536
TAFJAX
TAF
KJAX 290536Z 2906/3006 VRB04KT P6SM FEW030 BKN150
     FM291600 24006KT P6SM VCTS SCT030CB SCT050
     FM291900 13008KT P6SM VCTS SCT030CB BKN040CB PROB30 2919/2924
      4SM TSRA BKN030CB
     FM300300 VRB04KT P6SM OVC250=

Latest METAR

194
SAUS80 KWBC 291600 RRA
MTRJAX
METAR KJAX 291556Z 26013G18KT 10SM SCT030 BKN250 32/22 A2997 RMK AO2
SLP149 T03220222 $


USA.gov is the U.S. government's official web portal to all federal, state and local government web resources and services.